Time;durP1;ratioP1;P1;durP2;ratioP2;P2;SDS_P1;SDS_P2;PMS_P1;PMS_P2;Temp;Humidity;BMP_temperature;BMP_pressure;BME280_temperature;BME280_humidity;BME280_pressure;Samples;Min_cycle;Max_cycle;Signal;HPM_P1;HPM_P2
2021/03/01 00:02:17;;;;;;;15.03;10.70;;;;;;;5.42;64.80;102041.38;4995483;28;96744;-85
2021/03/01 00:04:43;;;;;;;15.43;10.50;;;;;;;5.68;64.16;102070.41;4979549;28;96522;-86
2021/03/01 00:07:09;;;;;;;14.43;10.57;;;;;;;5.60;64.21;102061.63;4996087;28;96583;-86
2021/03/01 00:09:35;;;;;;;15.57;10.90;;;;;;;5.53;64.42;102054.56;4996330;28;101049;-86
2021/03/01 00:12:02;;;;;;;13.63;10.43;;;;;;;5.72;63.72;102062.63;4997498;28;96623;-86
2021/03/01 00:14:28;;;;;;;16.93;11.67;;;;;;;5.74;64.04;102073.97;4979471;28;96445;-87
2021/03/01 00:16:54;;;;;;;18.10;11.80;;;;;;;5.72;63.67;102052.22;4996695;28;96819;-87
2021/03/01 00:19:20;;;;;;;14.27;9.97;;;;;;;5.54;64.58;102076.28;4992154;28;99444;-85
2021/03/01 00:21:46;;;;;;;16.90;11.00;;;;;;;5.41;64.74;102070.91;4975598;28;99395;-87
2021/03/01 00:24:12;;;;;;;17.20;11.37;;;;;;;5.32;65.05;102055.13;4976704;28;95847;-86
2021/03/01 00:26:38;;;;;;;18.93;11.63;;;;;;;5.25;65.51;102070.63;4975917;28;96519;-87
2021/03/01 00:29:05;;;;;;;15.10;11.10;;;;;;;5.21;65.22;102067.13;4975554;28;99770;-87
2021/03/01 00:31:31;;;;;;;17.43;11.33;;;;;;;5.37;65.21;102076.03;4958963;28;101185;-87
2021/03/01 00:33:57;;;;;;;15.90;10.97;;;;;;;5.53;64.92;102074.56;4976451;28;96448;-87
2021/03/01 00:36:23;;;;;;;14.40;11.17;;;;;;;5.62;64.31;102082.50;4959437;28;96490;-87
2021/03/01 00:38:49;;;;;;;15.47;11.40;;;;;;;5.68;64.16;102087.78;4994636;28;96835;-87
2021/03/01 00:41:15;;;;;;;16.60;11.30;;;;;;;5.52;64.02;102050.19;5014176;28;96784;-85
2021/03/01 00:43:41;;;;;;;15.37;10.87;;;;;;;5.44;64.33;102059.66;4999088;28;96448;-86
2021/03/01 00:46:07;;;;;;;17.93;11.97;;;;;;;5.54;64.38;102082.38;4983155;28;96519;-86
2021/03/01 00:48:33;;;;;;;17.20;11.67;;;;;;;5.59;64.40;102090.25;5015092;28;97137;-86
2021/03/01 00:50:59;;;;;;;16.83;11.77;;;;;;;5.50;64.36;102090.09;5014988;28;99170;-85
2021/03/01 00:53:26;;;;;;;16.17;10.60;;;;;;;5.63;64.29;102094.66;4998183;28;96981;-86
2021/03/01 00:55:52;;;;;;;17.23;11.53;;;;;;;5.55;64.32;102093.66;5032387;28;96492;-86
2021/03/01 00:58:19;;;;;;;17.87;11.13;;;;;;;5.60;64.30;102124.13;4998113;28;99901;-86
2021/03/01 01:00:50;;;;;;;17.77;11.23;;;;;;;5.66;64.45;102116.41;4997824;28;99596;-86
2021/03/01 01:03:19;;;;;;;17.97;10.93;;;;;;;5.74;64.40;102113.94;4999477;28;96366;-87
2021/03/01 01:05:54;;;;;;;20.97;11.60;;;;;;;5.49;64.75;102088.38;5017493;28;96748;-86
2021/03/01 01:08:21;;;;;;;16.00;11.77;;;;;;;5.57;64.71;102111.06;5035074;28;97308;-86
2021/03/01 01:10:47;;;;;;;16.70;10.50;;;;;;;5.41;65.20;102115.19;5019218;28;96489;-85
2021/03/01 01:13:12;;;;;;;14.80;11.10;;;;;;;5.23;65.03;102094.03;5001762;28;96598;-85
2021/03/01 01:15:38;;;;;;;18.00;11.03;;;;;;;5.50;65.04;102109.25;5018227;28;95963;-85
2021/03/01 01:18:05;;;;;;;16.00;10.60;;;;;;;5.44;64.52;102080.50;5017268;28;99438;-85
2021/03/01 01:20:32;;;;;;;18.57;11.20;;;;;;;5.65;64.22;102106.84;5000751;28;99377;-86
2021/03/01 01:22:58;;;;;;;17.57;11.63;;;;;;;5.49;64.67;102077.94;5002114;28;96693;-84
2021/03/01 01:25:24;;;;;;;18.93;11.23;;;;;;;5.50;64.85;102080.59;5002979;28;96903;-85
2021/03/01 01:27:50;;;;;;;16.97;11.63;;;;;;;5.44;64.80;102070.94;4997947;28;99233;-86
2021/03/01 01:30:19;;;;;;;17.50;11.80;;;;;;;5.26;65.65;102062.84;4997876;28;99536;-86
2021/03/01 01:32:45;;;;;;;18.43;11.97;;;;;;;5.24;65.75;102055.88;4998148;28;96604;-85
2021/03/01 01:35:12;;;;;;;20.77;13.03;;;;;;;5.17;66.06;102062.69;4999562;28;96291;-85
2021/03/01 01:37:39;;;;;;;18.60;12.50;;;;;;;5.35;65.83;102057.78;4999001;28;97912;-85
2021/03/01 01:40:10;;;;;;;18.57;12.10;;;;;;;5.36;65.36;102056.06;4990508;28;99620;-86
2021/03/01 01:42:36;;;;;;;21.15;13.68;;;;;;;5.40;65.56;102050.03;5018040;28;96568;-86
2021/03/01 01:45:09;;;;;;;22.27;13.43;;;;;;;5.26;65.45;102046.34;5020859;28;96502;-85
2021/03/01 01:47:35;;;;;;;18.80;12.63;;;;;;;5.17;66.23;102058.34;5004481;28;100022;-85
2021/03/01 01:50:03;;;;;;;19.83;12.73;;;;;;;5.26;66.03;102057.63;5021196;28;99556;-85
2021/03/01 01:52:32;;;;;;;21.70;13.37;;;;;;;5.39;65.89;102066.53;5021454;28;96730;-86
2021/03/01 01:54:59;;;;;;;22.40;13.53;;;;;;;5.47;65.45;102082.25;5005387;28;96866;-85
2021/03/01 01:57:25;;;;;;;20.87;13.33;;;;;;;5.47;65.39;102080.53;5020512;28;99410;-86
2021/03/01 01:59:51;;;;;;;21.70;13.47;;;;;;;5.52;65.21;102057.16;5020594;28;99100;-86
2021/03/01 02:02:17;;;;;;;25.30;12.20;;;;;;;5.45;65.74;102061.41;5004497;28;96218;-86
2021/03/01 02:04:54;;;;;;;25.17;13.40;;;;;;;5.39;65.48;102062.19;5021571;28;96574;-86
2021/03/01 02:07:39;;;;;;;21.30;13.60;;;;;;;5.47;65.91;102075.34;5004192;28;100177;-86
2021/03/01 02:10:18;;;;;;;21.37;13.43;;;;;;;5.51;65.63;102065.81;5020845;28;99378;-85
2021/03/01 02:12:59;;;;;;;22.40;13.70;;;;;;;5.61;65.31;102089.44;5021272;28;95854;-86
2021/03/01 02:15:40;;;;;;;17.47;12.20;;;;;;;5.66;65.13;102079.94;5021187;28;96521;-84
2021/03/01 02:18:06;;;;;;;21.97;14.03;;;;;;;5.38;65.80;102060.44;5013473;28;99643;-86
2021/03/01 02:20:32;;;;;;;21.17;13.30;;;;;;;5.36;65.88;102043.91;5001363;28;96403;-86
2021/03/01 02:22:58;;;;;;;22.77;13.43;;;;;;;5.36;65.45;102056.94;5000894;28;96546;-86
2021/03/01 02:25:27;;;;;;;19.03;13.87;;;;;;;5.47;65.45;102045.78;4984970;28;96487;-86
2021/03/01 02:28:08;;;;;;;21.53;13.37;;;;;;;5.61;65.22;102058.19;5000624;28;99819;-85
2021/03/01 02:30:37;;;;;;;18.67;12.80;;;;;;;5.54;65.62;102053.72;4984406;28;99670;-86
2021/03/01 02:33:09;;;;;;;18.50;12.97;;;;;;;5.65;65.00;102054.75;4984479;28;95747;-84
2021/03/01 02:35:34;;;;;;;;;;;;;;;5.74;65.03;102058.34;5001350;28;96613;-85
2021/03/01 02:38:02;;;;;;;20.13;13.07;;;;;;;5.64;64.70;102037.38;5000489;28;99598;-86
2021/03/01 02:40:29;;;;;;;21.73;14.17;;;;;;;5.69;65.08;102058.25;4999610;28;99800;-86
2021/03/01 02:42:56;;;;;;;22.33;13.23;;;;;;;5.58;65.03;102039.00;5013051;28;96299;-85
2021/03/01 02:45:22;;;;;;;21.07;13.00;;;;;;;5.57;64.91;102029.44;5005045;28;96444;-85
2021/03/01 02:47:49;;;;;;;22.03;12.80;;;;;;;5.53;65.11;102032.88;5020230;28;99575;-83
2021/03/01 02:50:15;;;;;;;21.13;12.13;;;;;;;5.53;65.17;102048.50;5003410;28;99611;-86
2021/03/01 02:52:42;;;;;;;21.33;12.80;;;;;;;5.43;65.62;102042.25;5020529;28;96467;-85
2021/03/01 02:55:09;;;;;;;20.57;12.50;;;;;;;5.52;65.37;102049.34;5003756;28;96859;-86
2021/03/01 02:57:36;;;;;;;20.90;11.93;;;;;;;5.50;65.21;102024.97;5019734;28;96700;-85
2021/03/01 03:00:08;;;;;;;17.73;11.23;;;;;;;5.52;65.76;102015.47;5000372;28;96717;-85
2021/03/01 03:02:35;;;;;;;16.70;10.77;;;;;;;5.64;65.59;102047.78;5018056;28;96705;-85
2021/03/01 03:05:01;;;;;;;20.33;11.67;;;;;;;5.60;65.43;102042.50;5017411;28;96582;-85
2021/03/01 03:07:29;;;;;;;15.87;10.03;;;;;;;5.67;65.25;102054.75;5017141;28;100266;-86
2021/03/01 03:09:55;;;;;;;14.93;10.10;;;;;;;5.59;65.31;102038.16;5016735;28;96718;-85
2021/03/01 03:12:25;;;;;;;15.83;9.90;;;;;;;5.50;65.28;102028.50;5018769;28;96578;-85
2021/03/01 03:14:53;;;;;;;16.17;9.77;;;;;;;5.50;65.45;102014.56;5004431;28;96725;-86
2021/03/01 03:17:19;;;;;;;15.07;10.13;;;;;;;5.50;64.97;102012.84;5020672;28;97017;-85
2021/03/01 03:19:45;;;;;;;15.57;9.43;;;;;;;5.51;65.28;102024.16;5011627;28;97505;-85
2021/03/01 03:22:11;;;;;;;17.87;10.13;;;;;;;5.71;65.02;102047.88;4984552;28;96700;-86
2021/03/01 03:24:38;;;;;;;14.27;9.53;;;;;;;5.65;64.86;102039.09;4984821;28;96507;-87
2021/03/01 03:27:05;;;;;;;16.40;10.70;;;;;;;5.43;65.96;102048.34;5016838;28;98283;-85
2021/03/01 03:29:31;;;;;;;18.17;10.40;;;;;;;5.51;65.83;102034.56;4967684;28;99550;-86
2021/03/01 03:31:58;;;;;;;18.57;11.10;;;;;;;5.57;65.46;102048.53;4984338;28;96544;-85
2021/03/01 03:34:24;;;;;;;19.73;11.90;;;;;;;5.52;65.57;102046.72;4984323;28;96877;-86
2021/03/01 03:37:05;;;;;;;16.77;12.07;;;;;;;5.46;66.03;102039.69;4983922;28;99533;-86
2021/03/01 03:39:33;;;;;;;19.60;12.67;;;;;;;5.64;65.89;102054.72;4983574;28;99887;-85
2021/03/01 03:42:00;;;;;;;21.60;13.43;;;;;;;5.53;65.61;102031.13;5001497;28;96304;-86
2021/03/01 03:44:27;;;;;;;23.47;14.90;;;;;;;5.50;66.05;102048.41;5012380;28;96612;-86
2021/03/01 03:46:53;;;;;;;22.67;14.87;;;;;;;5.25;66.64;102034.19;5002219;28;99631;-85
2021/03/01 03:49:20;;;;;;;26.37;15.60;;;;;;;5.34;66.67;102042.13;4999204;28;99400;-85
2021/03/01 03:51:46;;;;;;;25.27;15.50;;;;;;;5.54;66.57;102051.09;5020308;28;96743;-86
2021/03/01 03:54:18;;;;;;;24.33;16.40;;;;;;;5.44;66.62;102060.53;5000063;28;96104;-86
2021/03/01 03:56:57;;;;;;;25.40;16.23;;;;;;;5.28;66.70;102039.44;4987204;28;99866;-85
2021/03/01 03:59:29;;;;;;;28.13;15.33;;;;;;;5.24;66.54;102040.25;5002883;28;99652;-86
2021/03/01 04:01:56;;;;;;;24.77;16.45;;;;;;;5.37;66.70;102058.66;5037044;28;96546;-86
2021/03/01 04:04:26;;;;;;;25.53;16.50;;;;;;;5.36;66.54;102048.25;5020890;28;96770;-86
2021/03/01 04:06:52;;;;;;;24.50;15.53;;;;;;;5.42;66.38;102051.81;4999473;28;99778;-86
2021/03/01 04:09:21;;;;;;;24.67;16.00;;;;;;;5.37;66.80;102058.66;4986456;28;99499;-85
2021/03/01 04:11:48;;;;;;;25.27;17.47;;;;;;;5.21;67.23;102047.16;5003310;28;96525;-86
2021/03/01 04:14:16;;;;;;;29.57;16.57;;;;;;;5.00;67.97;102049.41;5002783;28;99114;-85
2021/03/01 04:16:46;;;;;;;26.40;17.10;;;;;;;5.08;67.49;102053.00;5019992;28;97856;-85
2021/03/01 04:19:14;;;;;;;26.73;16.17;;;;;;;5.10;67.70;102060.84;5015896;28;99263;-86
2021/03/01 04:21:40;;;;;;;29.53;17.13;;;;;;;5.15;67.18;102047.06;5016733;28;95781;-86
2021/03/01 04:24:08;;;;;;;27.50;17.50;;;;;;;5.42;66.69;102053.53;5016319;28;96529;-86
2021/03/01 04:26:34;;;;;;;30.33;17.07;;;;;;;5.46;66.88;102052.72;5019279;28;99560;-86
2021/03/01 04:29:01;;;;;;;27.50;17.47;;;;;;;5.25;66.92;102045.47;5000218;28;100664;-86
2021/03/01 04:31:27;;;;;;;27.13;17.27;;;;;;;5.13;66.80;102035.75;5020821;28;96617;-86
2021/03/01 04:33:54;;;;;;;26.33;17.77;;;;;;;5.28;66.88;102061.13;4987412;28;96870;-86
2021/03/01 04:36:20;;;;;;;32.50;17.43;;;;;;;5.35;66.77;102065.59;5004005;28;96474;-86
2021/03/01 04:38:46;;;;;;;28.87;18.60;;;;;;;5.31;66.64;102061.19;4987399;28;99670;-86
2021/03/01 04:41:12;;;;;;;28.27;17.93;;;;;;;5.27;66.85;102042.91;4983404;28;96538;-86
2021/03/01 04:43:40;;;;;;;32.50;18.30;;;;;;;5.26;66.54;102034.19;5018946;28;96479;-86
2021/03/01 04:46:07;;;;;;;30.17;18.57;;;;;;;5.48;66.58;102053.63;4985930;28;100014;-85
2021/03/01 04:48:32;;;;;;;28.10;16.67;;;;;;;5.42;66.36;102053.53;4985956;28;99624;-86
2021/03/01 04:50:59;;;;;;;31.93;18.53;;;;;;;5.34;66.68;102047.34;4986819;28;96419;-86
2021/03/01 04:53:27;;;;;;;26.37;16.67;;;;;;;5.26;66.67;102030.72;5003767;28;96479;-87
2021/03/01 04:55:53;;;;;;;30.23;18.33;;;;;;;5.11;67.11;102036.56;5019986;28;96928;-86
2021/03/01 04:58:20;;;;;;;31.53;19.93;;;;;;;5.24;66.97;102061.09;5002456;28;99619;-86
2021/03/01 05:00:47;;;;;;;36.10;20.53;;;;;;;5.24;67.34;102061.97;5002527;28;96301;-86
2021/03/01 05:03:12;;;;;;;32.97;18.87;;;;;;;5.24;66.82;102046.34;4982799;28;96526;-86
2021/03/01 05:05:41;;;;;;;32.10;18.67;;;;;;;5.17;66.92;102036.66;4985407;28;99568;-86
2021/03/01 05:08:17;;;;;;;28.83;17.37;;;;;;;5.13;67.13;102050.50;5018031;28;98798;-86
2021/03/01 05:10:44;;;;;;;34.53;18.10;;;;;;;5.12;67.08;102035.72;5002881;28;95809;-86
2021/03/01 05:13:10;;;;;;;36.30;19.83;;;;;;;5.20;66.99;102052.31;5019349;28;95855;-86
2021/03/01 05:15:36;;;;;;;31.77;18.33;;;;;;;5.15;66.95;102039.25;5001724;28;99602;-86
2021/03/01 05:18:02;;;;;;;36.87;19.50;;;;;;;5.12;66.85;102038.31;5002919;28;99560;-86
2021/03/01 05:20:29;;;;;;;33.73;19.30;;;;;;;5.25;66.94;102042.00;5002842;28;96545;-86
2021/03/01 05:22:55;;;;;;;31.97;18.37;;;;;;;5.38;66.97;102056.94;5019831;28;96502;-87
2021/03/01 05:25:21;;;;;;;30.80;17.30;;;;;;;5.22;67.14;102035.88;5018427;28;99563;-86
2021/03/01 05:27:47;;;;;;;32.13;18.90;;;;;;;5.16;67.62;102047.94;5018858;28;99845;-86
2021/03/01 05:30:13;;;;;;;30.07;17.97;;;;;;;5.31;67.25;102063.78;5002245;28;96342;-86
2021/03/01 05:32:39;;;;;;;39.20;19.90;;;;;;;5.21;67.27;102054.97;5002585;28;96497;-86
2021/03/01 05:35:06;;;;;;;36.97;19.07;;;;;;;5.28;66.98;102048.13;5003624;28;96458;-85
2021/03/01 05:37:33;;;;;;;30.00;17.30;;;;;;;5.24;66.97;102038.53;5002279;28;99605;-85
2021/03/01 05:39:59;;;;;;;35.10;18.70;;;;;;;5.26;67.01;102043.75;4982161;28;96511;-86
2021/03/01 05:42:35;;;;;;;35.20;18.43;;;;;;;5.35;67.65;102076.03;4999818;28;96358;-85
2021/03/01 05:45:03;;;;;;;37.57;19.07;;;;;;;5.28;66.69;102049.84;4999361;28;98000;-86
2021/03/01 05:47:30;;;;;;;39.33;20.37;;;;;;;5.46;66.94;102078.78;4995421;28;99548;-86
2021/03/01 05:49:58;;;;;;;36.77;19.63;;;;;;;5.26;67.48;102065.44;4995446;28;96654;-85
2021/03/01 05:52:24;;;;;;;33.77;19.80;;;;;;;5.41;67.04;102086.53;4997824;28;96498;-87
2021/03/01 05:54:51;;;;;;;37.87;19.93;;;;;;;5.45;66.71;102092.66;5018650;28;97088;-86
2021/03/01 05:57:18;;;;;;;40.57;18.93;;;;;;;5.36;67.07;102069.09;4991396;28;99694;-87
2021/03/01 05:59:46;;;;;;;30.97;19.70;;;;;;;5.46;66.62;102083.97;4982050;28;95827;-86
2021/03/01 06:02:13;;;;;;;33.63;20.13;;;;;;;5.42;66.72;102066.56;5015924;28;96738;-86
2021/03/01 06:04:39;;;;;;;35.60;21.70;;;;;;;5.45;66.94;102097.88;4986763;28;100473;-86
2021/03/01 06:07:05;;;;;;;47.60;22.47;;;;;;;5.33;67.32;102090.75;5002047;28;99513;-87
2021/03/01 06:09:31;;;;;;;38.93;21.80;;;;;;;5.47;67.13;102114.41;5000439;28;96463;-86
2021/03/01 06:11:58;;;;;;;40.37;22.43;;;;;;;5.55;66.98;102109.28;4982852;28;95999;-87
2021/03/01 06:14:24;;;;;;;43.97;22.90;;;;;;;5.44;67.22;102098.72;5033120;28;99692;-87
2021/03/01 06:17:15;;;;;;;39.77;22.27;;;;;;;5.46;67.09;102115.25;5006431;28;100757;-87
2021/03/01 06:19:58;;;;;;;39.33;22.43;;;;;;;5.51;66.82;102118.78;5007128;28;96351;-87
2021/03/01 06:22:39;;;;;;;39.03;21.47;;;;;;;5.34;67.09;102096.81;5018247;28;96621;-87
2021/03/01 06:25:13;;;;;;;38.00;22.03;;;;;;;5.40;67.24;102099.53;4985739;28;99738;-87
2021/03/01 06:27:51;;;;;;;35.93;22.00;;;;;;;5.40;66.91;102113.41;5000962;28;99081;-86
2021/03/01 06:30:19;;;;;;;34.40;20.73;;;;;;;5.42;67.33;102106.50;5018573;28;96515;-86
2021/03/01 06:33:03;;;;;;;33.33;20.67;;;;;;;5.48;67.17;102115.28;5017746;28;96063;-85
2021/03/01 06:35:33;;;;;;;43.60;23.07;;;;;;;5.59;67.06;102129.34;4997379;28;99665;-86
2021/03/01 06:38:24;;;;;;;37.37;22.43;;;;;;;5.56;67.00;102140.59;4991264;28;96463;-87
2021/03/01 06:41:19;;;;;;;34.07;21.17;;;;;;;5.65;66.70;102142.47;4984542;28;96699;-87
2021/03/01 06:43:54;;;;;;;39.37;22.13;;;;;;;5.66;66.89;102136.38;4981833;28;97000;-86
2021/03/01 06:46:24;;;;;;;36.33;21.07;;;;;;;5.66;66.72;102141.59;4981394;28;99552;-86
2021/03/01 06:48:50;;;;;;;40.47;22.80;;;;;;;5.75;66.39;102140.84;4981221;28;96476;-86
2021/03/01 06:51:16;;;;;;;35.73;21.10;;;;;;;5.59;66.43;102118.94;4997004;28;96509;-86
2021/03/01 06:53:42;;;;;;;36.73;21.60;;;;;;;5.58;66.86;102140.59;4965090;28;96586;-86
2021/03/01 06:56:14;;;;;;;36.73;22.03;;;;;;;5.57;66.71;102116.28;4981336;28;96549;-86
2021/03/01 06:58:47;;;;;;;36.08;21.48;;;;;;;5.68;66.36;102121.66;4997331;28;99788;-86
2021/03/01 07:01:24;;;;;;;39.57;23.87;;;;;;;5.59;66.05;102122.41;4980599;28;95874;-85
2021/03/01 07:03:51;;;;;;;38.73;21.83;;;;;;;5.61;66.38;102122.41;4980756;28;96808;-84
2021/03/01 07:06:18;;;;;;;40.60;23.00;;;;;;;5.71;66.50;102134.72;4998113;28;99610;-86
2021/03/01 07:08:52;;;;;;;40.03;22.53;;;;;;;5.61;66.30;102133.72;4996333;28;98397;-89
2021/03/01 07:11:39;;;;;;;;;;;;;;;5.81;66.72;102148.75;4982258;28;96649;-87
2021/03/01 07:14:05;;;;;;;37.47;21.57;;;;;;;5.85;65.83;102156.66;4982313;28;96534;-87
2021/03/01 07:16:48;;;;;;;36.90;21.70;;;;;;;5.75;66.43;102156.50;4968055;28;99437;-87
2021/03/01 07:19:32;;;;;;;35.27;21.13;;;;;;;5.80;66.03;102134.88;4993169;28;99364;-86
2021/03/01 07:22:03;;;;;;;41.83;23.13;;;;;;;5.86;66.24;102134.06;4982090;28;96717;-87
2021/03/01 07:24:30;;;;;;;33.63;21.60;;;;;;;5.96;65.76;102150.75;4998976;28;96467;-87
2021/03/01 07:26:59;;;;;;;37.73;20.67;;;;;;;5.88;65.65;102133.25;4981223;28;100003;-87
2021/03/01 07:29:29;;;;;;;35.17;21.37;;;;;;;6.11;65.46;102153.59;4977495;28;99620;-87
2021/03/01 07:32:03;;;;;;;34.10;20.10;;;;;;;6.03;65.50;102144.78;4971522;28;96579;-87
2021/03/01 07:34:35;;;;;;;37.03;22.33;;;;;;;6.09;65.65;102158.75;4980044;28;96576;-87
2021/03/01 07:37:03;;;;;;;34.37;20.17;;;;;;;6.05;65.66;102149.16;4992850;28;99272;-87
2021/03/01 07:39:33;;;;;;;35.83;20.47;;;;;;;6.09;65.49;102156.16;4967151;28;100860;-87
2021/03/01 07:42:01;;;;;;;33.13;19.57;;;;;;;5.99;65.64;102175.16;5000305;28;96564;-87
2021/03/01 07:44:31;;;;;;;34.47;19.43;;;;;;;6.00;65.62;102152.56;5015989;28;96799;-87
2021/03/01 07:46:59;;;;;;;32.03;19.77;;;;;;;6.10;65.55;102170.06;4999300;28;99788;-88
2021/03/01 07:49:38;;;;;;;34.13;19.37;;;;;;;6.03;65.46;102152.59;4999897;28;99887;-87
2021/03/01 07:52:04;;;;;;;35.73;18.83;;;;;;;6.04;65.59;102152.59;4998987;28;96509;-87
2021/03/01 07:54:53;;;;;;;29.10;18.97;;;;;;;6.10;65.70;102172.66;5015775;28;96568;-87
2021/03/01 07:57:21;;;;;;;35.43;17.80;;;;;;;6.12;65.71;102173.59;5015235;28;98481;-88
2021/03/01 07:59:48;;;;;;;29.50;18.53;;;;;;;6.06;65.77;102174.38;5032347;28;99380;-87
2021/03/01 08:02:16;;;;;;;26.83;17.87;;;;;;;5.93;66.18;102167.22;5032854;28;96614;-88
2021/03/01 08:04:43;;;;;;;35.03;18.97;;;;;;;5.96;66.42;102192.47;4999520;28;96518;-87
2021/03/01 08:07:09;;;;;;;30.00;19.40;;;;;;;5.93;66.45;102169.81;4989936;28;96793;-88
2021/03/01 08:09:47;;;;;;;26.47;17.00;;;;;;;6.12;65.92;102187.50;5012412;28;97985;-87
2021/03/01 08:12:34;;;;;;;32.83;18.97;;;;;;;6.02;66.35;102171.69;4982657;28;96563;-88
2021/03/01 08:15:08;;;;;;;34.43;19.13;;;;;;;6.20;66.19;102199.78;4995321;28;96482;-87
2021/03/01 08:17:36;;;;;;;34.67;19.00;;;;;;;6.11;65.64;102184.88;5013004;28;96492;-87
2021/03/01 08:20:15;;;;;;;34.90;19.27;;;;;;;6.30;65.87;102205.13;5016603;28;99634;-87
2021/03/01 08:23:03;;;;;;;34.40;19.23;;;;;;;6.32;65.44;102208.63;5015729;28;96470;-86
2021/03/01 08:25:45;;;;;;;32.03;16.90;;;;;;;6.40;65.64;102208.75;5016843;28;97495;-87
2021/03/01 08:28:19;;;;;;;30.75;18.30;;;;;;;6.41;65.37;102202.66;5000123;28;99678;-88
2021/03/01 08:30:53;;;;;;;39.87;18.77;;;;;;;6.38;65.30;102204.34;5011267;28;97867;-87
2021/03/01 08:33:19;;;;;;;29.10;16.93;;;;;;;6.32;65.37;102205.16;4979599;28;97121;-87
2021/03/01 08:35:46;;;;;;;32.80;17.57;;;;;;;6.40;65.44;102203.53;5029853;28;96889;-87
2021/03/01 08:38:14;;;;;;;41.30;18.43;;;;;;;6.31;65.17;102174.69;4997827;28;100337;-87
2021/03/01 08:40:54;;;;;;;31.13;18.13;;;;;;;6.48;64.76;102208.81;4993519;28;100462;-87
2021/03/01 08:43:35;;;;;;;30.73;16.30;;;;;;;6.40;64.88;102182.66;4963152;28;95798;-86
2021/03/01 08:46:03;;;;;;;35.77;17.77;;;;;;;6.43;65.03;102206.19;4994051;28;97022;-88
2021/03/01 08:48:29;;;;;;;38.40;17.27;;;;;;;6.44;65.10;102205.31;4993615;28;99551;-87
2021/03/01 08:50:55;;;;;;;33.33;16.00;;;;;;;6.32;64.88;102187.75;5009969;28;99480;-86
2021/03/01 08:53:29;;;;;;;30.23;15.73;;;;;;;6.52;64.88;102211.50;4958107;28;96414;-87
2021/03/01 08:55:56;;;;;;;28.37;16.50;;;;;;;6.51;64.68;102199.28;4958344;28;96619;-87
2021/03/01 08:58:35;;;;;;;28.23;15.77;;;;;;;6.51;64.71;102201.91;4957578;28;98101;-87
2021/03/01 09:01:04;;;;;;;25.07;15.47;;;;;;;6.36;64.78;102188.66;4956294;28;99783;-88
2021/03/01 09:03:34;;;;;;;26.33;15.80;;;;;;;6.51;64.30;102207.13;4961911;28;96577;-86
2021/03/01 09:14:19;;;;;;;22.00;12.60;;;;;;;6.51;64.68;102232.34;4993581;28;96477;-86
2021/03/01 09:20:44;;;;;;;25.47;13.93;;;;;;;6.54;64.51;102222.84;4993809;28;95615;-85
2021/03/01 09:28:07;;;;;;;24.93;13.10;;;;;;;6.54;64.48;102238.50;4994843;28;96745;-86
2021/03/01 09:30:37;;;;;;;22.23;11.90;;;;;;;6.33;64.88;102209.50;4965481;28;96612;-86
2021/03/01 09:45:01;;;;;;;22.02;11.38;;;;;;;6.50;64.04;102209.72;4938268;28;96576;-86
2021/03/01 09:51:23;;;;;;;22.77;10.47;;;;;;;6.75;63.27;102243.13;4937858;28;96694;-86
2021/03/01 09:57:59;;;;;;;17.50;9.55;;;;;;;6.74;62.54;102235.25;4938256;28;96823;-86
2021/03/01 10:08:36;;;;;;;23.73;10.10;;;;;;;6.84;63.71;102229.28;4974367;28;96772;-85
2021/03/01 10:18:45;;;;;;;17.83;10.37;;;;;;;7.10;62.14;102231.28;4995759;28;96587;-85
2021/03/01 10:29:46;;;;;;;26.15;12.00;;;;;;;6.90;62.86;102237.19;4994405;28;96666;-82
2021/03/01 10:48:15;;;;;;;19.70;11.17;;;;;;;7.08;61.57;102233.91;4998252;28;98459;-86
2021/03/01 10:58:46;;;;;;;25.87;10.97;;;;;;;7.00;62.30;102233.81;4976354;28;96547;-85
2021/03/01 11:09:09;;;;;;;23.43;11.80;;;;;;;6.99;62.17;102226.84;4963996;28;96523;-79
2021/03/01 11:11:36;;;;;;;21.97;11.57;;;;;;;6.91;62.37;102228.50;4957611;28;96384;-85
2021/03/01 11:14:03;;;;;;;24.13;11.97;;;;;;;7.02;61.83;102237.31;4979110;28;99628;-89
2021/03/01 11:16:29;;;;;;;18.02;11.18;;;;;;;7.02;61.95;102239.94;4998662;28;99464;-87
2021/03/01 11:18:54;;;;;;;23.73;12.37;;;;;;;7.12;61.74;102234.81;4964375;28;96606;-85
2021/03/01 11:21:20;;;;;;;22.93;11.27;;;;;;;7.26;61.88;102246.28;4965285;28;97029;-87
2021/03/01 11:23:46;;;;;;;18.20;10.73;;;;;;;7.24;61.34;102235.84;4982039;28;99500;-88
2021/03/01 11:26:14;;;;;;;22.23;12.17;;;;;;;7.20;61.53;102236.63;4998039;28;99237;-87
2021/03/01 11:28:41;;;;;;;32.30;12.20;;;;;;;7.19;61.36;102239.25;4947707;28;96700;-84
2021/03/01 11:31:07;;;;;;;30.45;13.52;;;;;;;7.19;61.99;102247.97;4997920;28;96650;-89
2021/03/01 11:34:29;;;;;;;17.98;11.48;;;;;;;7.22;61.31;102245.38;4997365;28;99363;-83
2021/03/01 11:36:54;;;;;;;20.70;11.68;;;;;;;7.24;61.39;102234.94;4968824;28;101769;-81
2021/03/01 11:39:41;;;;;;;21.65;11.80;;;;;;;7.15;61.03;102253.13;4969741;28;96517;-87
2021/03/01 11:42:07;;;;;;;21.53;12.03;;;;;;;7.20;61.54;102251.44;4996319;28;96690;-86
2021/03/01 11:44:32;;;;;;;28.58;13.00;;;;;;;7.32;61.09;102237.63;4979770;28;99336;-86
2021/03/01 11:46:58;;;;;;;25.92;11.82;;;;;;;7.45;60.76;102239.50;4964885;28;99701;-86
2021/03/01 11:49:24;;;;;;;19.13;10.53;;;;;;;7.38;60.39;102233.34;5006232;28;96708;-85
2021/03/01 11:51:49;;;;;;;18.63;10.73;;;;;;;7.25;61.11;102231.47;4999698;28;96526;-87
2021/03/01 11:54:15;;;;;;;22.73;11.40;;;;;;;7.33;61.03;102241.97;4998561;28;99675;-86
2021/03/01 11:56:41;;;;;;;20.95;11.10;;;;;;;7.33;60.87;102236.75;5016010;28;99320;-85
2021/03/01 11:59:10;;;;;;;22.08;11.50;;;;;;;7.27;61.03;102229.72;5016652;28;96335;-86
2021/03/01 12:05:34;;;;;;;21.20;12.25;;;;;;;7.16;61.00;102227.03;5011036;28;97148;-78
2021/03/01 12:07:59;;;;;;;22.83;12.33;;;;;;;7.22;61.27;102221.88;4992465;28;98047;-86
2021/03/01 12:10:25;;;;;;;27.35;13.70;;;;;;;7.35;60.79;102224.59;5015288;28;96463;-83
2021/03/01 12:13:44;;;;;;;22.17;13.23;;;;;;;7.33;61.05;102223.69;5012791;28;96581;-81
2021/03/01 12:19:50;;;;;;;25.48;14.38;;;;;;;7.28;61.18;102218.44;4989995;28;100126;-80
2021/03/01 12:22:18;;;;;;;21.73;13.50;;;;;;;7.30;60.98;102221.06;4979539;28;97294;-79
2021/03/01 12:24:44;;;;;;;19.40;13.20;;;;;;;7.41;60.22;102214.19;4971713;28;96767;-82
2021/03/01 12:27:09;;;;;;;24.50;13.20;;;;;;;7.58;60.61;102209.13;5024002;28;101354;-82
2021/03/01 12:30:13;;;;;;;28.90;13.83;;;;;;;7.62;60.15;102216.13;4976807;28;101913;-84
2021/03/01 12:32:38;;;;;;;21.50;11.70;;;;;;;7.79;59.65;102211.03;4993961;28;96494;-82
2021/03/01 12:35:05;;;;;;;21.70;12.38;;;;;;;7.79;59.39;102211.03;4988495;28;96616;-81
2021/03/01 12:37:30;;;;;;;23.38;13.88;;;;;;;7.67;60.27;102204.84;4987805;28;98177;-80
2021/03/01 12:39:56;;;;;;;26.95;15.27;;;;;;;7.58;59.98;102210.00;4968439;28;101249;-81
2021/03/01 12:42:22;;;;;;;27.15;15.32;;;;;;;7.48;60.82;102216.88;4995014;28;96945;-81
2021/03/01 12:44:53;;;;;;;25.50;13.90;;;;;;;7.66;60.07;102199.63;4962636;28;97016;-80
2021/03/01 12:47:19;;;;;;;28.40;13.77;;;;;;;7.70;60.21;102198.75;4977985;28;97957;-83
2021/03/01 12:49:49;;;;;;;33.38;15.68;;;;;;;7.76;60.27;102196.19;4988582;28;99616;-80
2021/03/01 12:52:15;;;;;;;33.20;16.20;;;;;;;7.93;59.95;102196.31;4997215;28;96695;-79
2021/03/01 12:54:40;;;;;;;31.83;16.20;;;;;;;7.82;59.52;102191.00;4959668;28;96858;-79
2021/03/01 12:57:08;;;;;;;26.15;14.23;;;;;;;7.93;59.56;102191.94;4958708;28;101529;-79
2021/03/01 12:59:34;;;;;;;26.27;14.68;;;;;;;8.05;59.62;102188.53;4977711;28;100491;-79
2021/03/01 13:01:59;;;;;;;24.27;14.20;;;;;;;8.06;59.63;102190.31;4979273;28;96631;-78
2021/03/01 13:04:26;;;;;;;32.03;14.57;;;;;;;8.09;58.98;102189.47;4978588;28;97165;-79
2021/03/01 13:06:53;;;;;;;28.02;14.80;;;;;;;8.09;58.83;102189.47;4965169;28;97917;-81
2021/03/01 13:09:19;;;;;;;31.92;14.90;;;;;;;8.10;58.78;102186.84;4987414;28;102054;-85